Time;durP1;ratioP1;P1;durP2;ratioP2;P2;SDS_P1;SDS_P2;PMS_P1;PMS_P2;Temp;Humidity;BMP_temperature;BMP_pressure;BME280_temperature;BME280_humidity;BME280_pressure;Samples;Min_cycle;Max_cycle;Signal;HPM_P1;HPM_P2
2023/04/03 00:01:35;;;;;;;3.93;2.87;;;4.20;99.90;;;;;;5090151;28;20200;-70
2023/04/03 00:04:00;;;;;;;4.35;3.67;;;4.20;99.90;;;;;;5090041;28;20184;-70
2023/04/03 00:06:26;;;;;;;2.90;2.70;;;4.20;99.90;;;;;;5093367;28;20664;-70
2023/04/03 00:08:53;;;;;;;7.20;3.73;;;4.20;99.90;;;;;;5091088;28;20208;-70
2023/04/03 00:11:18;;;;;;;5.43;3.75;;;4.20;99.90;;;;;;5090567;28;20246;-71
2023/04/03 00:13:45;;;;;;;4.90;4.03;;;4.10;99.90;;;;;;5090386;28;20699;-70
2023/04/03 00:16:11;;;;;;;6.05;3.53;;;4.20;99.90;;;;;;5090297;28;20248;-72
2023/04/03 00:18:38;;;;;;;3.83;3.42;;;4.10;99.90;;;;;;5088431;28;20619;-70
2023/04/03 00:21:04;;;;;;;4.15;3.50;;;4.20;99.90;;;;;;5090587;28;20189;-71
2023/04/03 00:23:30;;;;;;;6.35;3.78;;;4.20;99.90;;;;;;5088697;28;20194;-70
2023/04/03 00:25:56;;;;;;;4.83;3.63;;;4.20;99.90;;;;;;5088573;28;20184;-70
2023/04/03 00:28:22;;;;;;;3.87;3.47;;;4.20;99.90;;;;;;5088560;28;20230;-70
2023/04/03 00:30:51;;;;;;;6.00;3.60;;;4.20;99.90;;;;;;5089611;28;20264;-70
2023/04/03 00:33:16;;;;;;;3.93;3.30;;;4.20;99.90;;;;;;5089565;28;20458;-70
2023/04/03 00:35:42;;;;;;;3.67;3.37;;;4.10;99.90;;;;;;5089621;28;20411;-70
2023/04/03 00:38:08;;;;;;;5.13;3.20;;;4.20;99.90;;;;;;5087926;28;20232;-70
2023/04/03 00:40:36;;;;;;;6.03;3.63;;;4.20;99.90;;;;;;5089337;28;20313;-70
2023/04/03 00:43:11;;;;;;;4.30;3.90;;;4.10;99.90;;;;;;5089444;28;20213;-70
2023/04/03 00:45:40;;;;;;;3.67;3.33;;;4.10;99.90;;;;;;5088019;28;20415;-71
2023/04/03 00:48:09;;;;;;;4.45;3.85;;;4.10;99.90;;;;;;5089384;28;20186;-70
2023/04/03 00:50:38;;;;;;;5.10;4.07;;;4.10;99.90;;;;;;5089268;28;20181;-70
2023/04/03 00:53:05;;;;;;;3.53;3.22;;;4.10;99.90;;;;;;5089059;28;20439;-70
2023/04/03 00:55:32;;;;;;;4.35;3.72;;;4.10;99.90;;;;;;5089376;28;20188;-70
2023/04/03 00:57:59;;;;;;;4.40;3.20;;;4.10;99.90;;;;;;5087249;28;20196;-70
2023/04/03 01:00:25;;;;;;;9.73;3.95;;;4.10;99.90;;;;;;5087704;28;20870;-70
2023/04/03 01:02:51;;;;;;;7.32;3.80;;;4.00;99.90;;;;;;5088976;28;20289;-70
2023/04/03 01:05:18;;;;;;;4.85;3.65;;;4.10;99.90;;;;;;5089232;28;20208;-70
2023/04/03 01:07:45;;;;;;;4.60;3.65;;;4.10;99.90;;;;;;5089304;28;20191;-71
2023/04/03 01:10:14;;;;;;;5.17;3.80;;;4.00;99.90;;;;;;5089181;28;20233;-70
2023/04/03 01:12:42;;;;;;;4.63;3.80;;;3.90;99.90;;;;;;5088960;28;20447;-70
2023/04/03 01:15:15;;;;;;;4.47;3.90;;;3.90;99.90;;;;;;5088940;28;20194;-70
2023/04/03 01:17:44;;;;;;;7.93;4.20;;;3.90;99.90;;;;;;5088910;28;20419;-71
2023/04/03 01:20:30;;;;;;;5.35;3.70;;;3.90;99.90;;;;;;5089008;28;20462;-71
2023/04/03 01:23:05;;;;;;;4.00;3.60;;;4.00;99.90;;;;;;5087245;28;20236;-71
2023/04/03 01:25:31;;;;;;;3.97;3.38;;;3.90;99.90;;;;;;5087137;28;20431;-70
2023/04/03 01:27:57;;;;;;;7.37;4.23;;;3.90;99.90;;;;;;5088787;28;20270;-70
2023/04/03 01:30:30;;;;;;;3.90;3.50;;;3.90;99.90;;;;;;5087521;28;20436;-70
2023/04/03 01:32:56;;;;;;;4.00;3.60;;;3.90;99.90;;;;;;5088615;28;20202;-70
2023/04/03 01:35:21;;;;;;;3.73;3.43;;;3.80;99.90;;;;;;5088771;28;20462;-71
2023/04/03 01:37:47;;;;;;;6.80;4.20;;;3.90;99.90;;;;;;5088392;28;20462;-70
2023/04/03 01:40:12;;;;;;;4.47;3.70;;;3.90;99.90;;;;;;5087166;28;20325;-70
2023/04/03 01:42:38;;;;;;;4.20;3.60;;;3.90;99.90;;;;;;5088785;28;20262;-70
2023/04/03 01:45:04;;;;;;;6.57;3.63;;;3.80;99.90;;;;;;5088853;28;20184;-70
2023/04/03 01:47:30;;;;;;;4.10;3.70;;;3.80;99.90;;;;;;5088675;28;20238;-70
2023/04/03 01:49:56;;;;;;;5.53;4.00;;;3.90;99.90;;;;;;5088722;28;20191;-70
2023/04/03 01:52:21;;;;;;;6.43;4.80;;;3.90;99.90;;;;;;5088542;28;20205;-70
2023/04/03 01:54:47;;;;;;;4.63;3.87;;;3.80;99.90;;;;;;5088430;28;20435;-70
2023/04/03 01:57:14;;;;;;;4.23;3.83;;;3.80;99.90;;;;;;5088577;28;20216;-70
2023/04/03 01:59:40;;;;;;;3.95;3.55;;;3.80;99.90;;;;;;5087133;28;20635;-70
2023/04/03 02:02:06;;;;;;;6.40;4.30;;;3.70;99.90;;;;;;5088472;28;20257;-70
2023/04/03 02:04:31;;;;;;;6.80;4.77;;;3.70;99.90;;;;;;5088569;28;20211;-70
2023/04/03 02:06:57;;;;;;;4.20;3.80;;;3.70;99.90;;;;;;5087226;28;20184;-70
2023/04/03 02:09:22;;;;;;;4.17;3.73;;;3.60;99.90;;;;;;5089791;28;20221;-69
2023/04/03 02:11:48;;;;;;;3.77;3.47;;;3.60;99.90;;;;;;5092531;28;20235;-70
2023/04/03 02:14:14;;;;;;;4.40;4.00;;;3.60;99.90;;;;;;5092504;28;20184;-70
2023/04/03 02:16:39;;;;;;;6.03;4.10;;;3.70;99.90;;;;;;5090752;28;20190;-70
2023/04/03 02:19:05;;;;;;;4.90;4.50;;;3.70;99.90;;;;;;5092122;28;20216;-69
2023/04/03 02:21:31;;;;;;;5.05;4.00;;;3.70;99.90;;;;;;5092118;28;20238;-71
2023/04/03 02:23:57;;;;;;;4.00;3.70;;;3.80;99.90;;;;;;5092405;28;20180;-69
2023/04/03 02:26:22;;;;;;;4.93;4.43;;;3.70;99.90;;;;;;5092119;28;20248;-69
2023/04/03 02:28:48;;;;;;;4.00;3.60;;;3.70;99.90;;;;;;5092187;28;20602;-69
2023/04/03 02:31:14;;;;;;;6.93;3.50;;;3.80;99.90;;;;;;5092045;28;20202;-69
2023/04/03 02:33:40;;;;;;;5.93;4.70;;;3.80;99.90;;;;;;5092096;28;20178;-69
2023/04/03 02:36:06;;;;;;;5.00;3.97;;;3.80;99.90;;;;;;5092156;28;20972;-70
2023/04/03 02:38:32;;;;;;;4.33;3.90;;;3.70;99.90;;;;;;5090548;28;20695;-70
2023/04/03 02:41:09;;;;;;;4.33;3.93;;;3.70;99.90;;;;;;5091732;28;20423;-70
2023/04/03 02:43:35;;;;;;;6.18;4.45;;;3.70;99.90;;;;;;5092055;28;20793;-70
2023/04/03 02:46:00;;;;;;;6.10;4.07;;;3.70;99.90;;;;;;5091921;28;20207;-70
2023/04/03 02:48:26;;;;;;;4.83;4.00;;;3.70;99.90;;;;;;5090654;28;20422;-70
2023/04/03 02:50:52;;;;;;;4.87;4.10;;;3.70;99.90;;;;;;5090391;28;20193;-70
2023/04/03 02:53:18;;;;;;;5.80;4.90;;;3.70;99.90;;;;;;5091909;28;21265;-70
2023/04/03 02:55:44;;;;;;;4.33;3.93;;;3.70;99.90;;;;;;5091704;28;20185;-70
2023/04/03 02:58:10;;;;;;;5.37;4.00;;;3.80;99.90;;;;;;5091701;28;20416;-70
2023/04/03 03:00:36;;;;;;;4.30;3.80;;;3.80;99.90;;;;;;5091454;28;20505;-71
2023/04/03 03:03:01;;;;;;;3.93;3.63;;;3.80;99.90;;;;;;5090469;28;20533;-70
2023/04/03 03:05:28;;;;;;;4.67;4.17;;;3.90;99.90;;;;;;5091496;28;20182;-70
2023/04/03 03:07:54;;;;;;;4.60;4.20;;;3.90;99.90;;;;;;5090173;28;20188;-70
2023/04/03 03:10:20;;;;;;;4.07;3.70;;;4.00;99.90;;;;;;5091795;28;20416;-71
2023/04/03 03:12:46;;;;;;;5.07;4.07;;;4.00;99.90;;;;;;5091859;28;20518;-70
2023/04/03 03:15:12;;;;;;;5.67;3.80;;;3.80;99.90;;;;;;5090630;28;20419;-70
2023/04/03 03:17:37;;;;;;;4.20;3.50;;;3.80;99.90;;;;;;5091986;28;20715;-70
2023/04/03 03:20:05;;;;;;;8.63;4.13;;;3.70;99.90;;;;;;5090094;28;20466;-70
2023/04/03 03:22:30;;;;;;;5.30;4.53;;;3.70;99.90;;;;;;5090307;28;20214;-70
2023/04/03 03:24:56;;;;;;;5.33;4.30;;;3.60;99.90;;;;;;5091497;28;20448;-70
2023/04/03 03:27:21;;;;;;;9.37;4.90;;;3.60;99.90;;;;;;5091526;28;20211;-70
2023/04/03 03:29:47;;;;;;;7.83;3.93;;;3.70;99.90;;;;;;5091255;28;20548;-70
2023/04/03 03:32:13;;;;;;;5.10;4.00;;;3.70;99.90;;;;;;5089710;28;20233;-69
2023/04/03 03:34:38;;;;;;;4.23;3.67;;;3.70;99.90;;;;;;5091065;28;20224;-70
2023/04/03 03:37:04;;;;;;;5.30;4.00;;;3.50;99.90;;;;;;5091105;28;20260;-70
2023/04/03 03:39:30;;;;;;;6.53;4.03;;;3.70;99.90;;;;;;5090969;28;20645;-70
2023/04/03 03:41:55;;;;;;;6.00;3.77;;;3.60;99.90;;;;;;5091057;28;20204;-70
2023/04/03 03:44:21;;;;;;;4.10;3.70;;;3.70;99.90;;;;;;5089818;28;20194;-70
2023/04/03 03:46:47;;;;;;;4.90;3.83;;;3.60;99.90;;;;;;5091250;28;20199;-70
2023/04/03 03:49:12;;;;;;;4.00;3.60;;;3.60;99.90;;;;;;5089925;28;21008;-70
2023/04/03 03:51:39;;;;;;;6.23;4.27;;;3.60;99.90;;;;;;5091292;28;20204;-70
2023/04/03 03:54:06;;;;;;;4.65;4.00;;;3.60;99.90;;;;;;5091294;28;20196;-69
2023/04/03 03:56:32;;;;;;;8.27;3.95;;;3.70;99.90;;;;;;5091082;28;20212;-70
2023/04/03 03:58:57;;;;;;;4.03;3.63;;;3.70;99.90;;;;;;5090917;28;20342;-69
2023/04/03 04:01:24;;;;;;;4.43;4.03;;;3.70;99.90;;;;;;5090739;28;20443;-70
2023/04/03 04:03:50;;;;;;;4.47;3.50;;;3.60;99.90;;;;;;5089126;28;20670;-70
2023/04/03 04:06:16;;;;;;;4.55;3.88;;;3.60;99.90;;;;;;5090458;28;20699;-70
2023/04/03 04:08:42;;;;;;;4.90;3.93;;;3.60;99.90;;;;;;5090155;28;20183;-70
2023/04/03 04:11:08;;;;;;;5.73;4.27;;;3.50;99.90;;;;;;5090315;28;20944;-70
2023/04/03 04:13:34;;;;;;;7.78;3.05;;;3.50;99.90;;;;;;5090534;28;20441;-70
2023/04/03 04:16:00;;;;;;;4.00;3.60;;;3.50;99.90;;;;;;5090672;28;20676;-70
2023/04/03 04:18:26;;;;;;;7.93;4.00;;;3.50;99.90;;;;;;5091002;28;20427;-70
2023/04/03 04:20:51;;;;;;;5.57;3.63;;;3.50;99.90;;;;;;5091136;28;20263;-70
2023/04/03 04:23:18;;;;;;;3.67;3.37;;;3.50;99.90;;;;;;5090715;28;20207;-70
2023/04/03 04:25:46;;;;;;;9.05;3.67;;;3.50;99.90;;;;;;5090609;28;20417;-69
2023/04/03 04:28:12;;;;;;;3.53;3.05;;;3.50;99.90;;;;;;5089253;28;20181;-70
2023/04/03 04:30:38;;;;;;;3.35;3.05;;;3.50;99.90;;;;;;5090465;28;20181;-70
2023/04/03 04:33:03;;;;;;;8.98;3.47;;;3.50;99.90;;;;;;5088140;28;20215;-70
2023/04/03 04:35:29;;;;;;;3.17;2.87;;;3.50;99.90;;;;;;5090119;28;20233;-70
2023/04/03 04:37:54;;;;;;;3.70;3.40;;;3.50;99.90;;;;;;5089565;28;20227;-70
2023/04/03 04:40:20;;;;;;;4.00;3.30;;;3.50;99.90;;;;;;5089837;28;20287;-69
2023/04/03 04:42:46;;;;;;;3.57;3.27;;;3.40;99.90;;;;;;5089793;28;20223;-69
2023/04/03 04:45:12;;;;;;;3.93;3.33;;;3.30;99.90;;;;;;5089813;28;20184;-70
2023/04/03 04:47:37;;;;;;;3.93;2.93;;;3.40;99.90;;;;;;5071438;28;20552;-69
2023/04/03 04:50:03;;;;;;;6.10;3.40;;;3.40;99.90;;;;;;5087499;28;20704;-70
2023/04/03 04:52:29;;;;;;;3.53;3.22;;;3.40;99.90;;;;;;5088130;28;20712;-70
2023/04/03 04:54:55;;;;;;;3.93;2.77;;;3.50;99.90;;;;;;5086608;28;20198;-69
2023/04/03 04:57:20;;;;;;;4.47;3.23;;;3.50;99.90;;;;;;5088271;28;20188;-70
2023/04/03 04:59:46;;;;;;;2.60;2.40;;;3.50;99.90;;;;;;5088015;28;20738;-69
2023/04/03 05:02:11;;;;;;;4.00;2.77;;;3.50;99.90;;;;;;5088109;28;20204;-70
2023/04/03 05:04:37;;;;;;;3.97;3.37;;;3.60;99.90;;;;;;5086644;28;20181;-70
2023/04/03 05:07:03;;;;;;;3.77;3.47;;;3.60;99.90;;;;;;5088037;28;20192;-70
2023/04/03 05:09:28;;;;;;;2.63;2.43;;;3.70;99.90;;;;;;5088138;28;20197;-69
2023/04/03 05:11:54;;;;;;;2.50;2.27;;;3.70;99.90;;;;;;5088382;28;21107;-69
2023/04/03 05:14:20;;;;;;;6.60;3.97;;;3.70;99.90;;;;;;5086577;28;20196;-69
2023/04/03 05:16:45;;;;;;;4.20;2.37;;;3.70;99.90;;;;;;5086563;28;20197;-70
2023/04/03 05:19:11;;;;;;;2.40;1.77;;;3.70;99.90;;;;;;5087977;28;20523;-70
2023/04/03 05:21:36;;;;;;;2.00;1.80;;;3.70;99.90;;;;;;5088032;28;20201;-70
2023/04/03 05:24:02;;;;;;;3.97;2.13;;;3.80;99.90;;;;;;5086331;28;20189;-70
2023/04/03 05:26:31;;;;;;;2.23;2.07;;;3.80;99.90;;;;;;5088053;28;20185;-70
2023/04/03 05:28:57;;;;;;;2.33;2.13;;;3.80;99.50;;;;;;5087921;28;20423;-70
2023/04/03 05:31:23;;;;;;;2.20;1.87;;;3.90;99.80;;;;;;5086161;28;20704;-70
2023/04/03 05:33:48;;;;;;;7.40;2.20;;;3.90;99.10;;;;;;5087262;28;20933;-71
2023/04/03 05:36:14;;;;;;;2.10;2.00;;;3.90;99.90;;;;;;5086725;28;20188;-70
2023/04/03 05:38:40;;;;;;;2.33;2.03;;;3.90;99.60;;;;;;5087774;28;20203;-69
2023/04/03 05:41:05;;;;;;;5.60;2.60;;;4.00;99.00;;;;;;5088058;28;20209;-70
2023/04/03 05:43:31;;;;;;;4.20;3.00;;;3.90;99.90;;;;;;5090096;28;20185;-70
2023/04/03 05:45:57;;;;;;;2.20;2.00;;;3.80;99.90;;;;;;5091321;28;20211;-69
2023/04/03 05:48:22;;;;;;;2.80;2.37;;;3.80;99.90;;;;;;5092499;28;20193;-70
2023/04/03 05:50:48;;;;;;;3.50;2.30;;;3.80;99.90;;;;;;5091799;28;20277;-70
2023/04/03 05:53:24;;;;;;;6.37;2.80;;;3.90;99.90;;;;;;5091816;28;20197;-71
2023/04/03 05:55:50;;;;;;;2.53;2.28;;;3.90;99.90;;;;;;5091755;28;20280;-70
2023/04/03 05:58:15;;;;;;;2.67;2.47;;;3.80;99.90;;;;;;5091422;28;20312;-70
2023/04/03 06:00:41;;;;;;;5.80;2.20;;;3.90;99.90;;;;;;5089681;28;20614;-69
2023/04/03 06:03:07;;;;;;;3.53;2.43;;;4.00;99.90;;;;;;5089976;28;20216;-70
2023/04/03 06:05:32;;;;;;;4.03;2.47;;;4.00;99.90;;;;;;5091781;28;20173;-70
2023/04/03 06:07:58;;;;;;;3.30;2.60;;;4.00;99.90;;;;;;5091697;28;20282;-70
2023/04/03 06:10:24;;;;;;;5.47;2.20;;;3.90;99.90;;;;;;5091794;28;20236;-70
2023/04/03 06:12:50;;;;;;;3.13;2.73;;;3.90;99.90;;;;;;5091591;28;20545;-70
2023/04/03 06:15:17;;;;;;;2.40;2.22;;;4.00;99.90;;;;;;5091498;28;20212;-70
2023/04/03 06:17:42;;;;;;;3.00;2.00;;;3.90;99.90;;;;;;5091322;28;20190;-70
2023/04/03 06:20:09;;;;;;;2.97;2.67;;;3.80;99.90;;;;;;5089636;28;20455;-70
2023/04/03 06:22:35;;;;;;;4.27;2.17;;;3.80;99.90;;;;;;5090772;28;20224;-70
2023/04/03 06:25:01;;;;;;;2.47;2.27;;;3.70;99.90;;;;;;5090790;28;20457;-70
2023/04/03 06:27:26;;;;;;;4.80;2.10;;;3.70;99.90;;;;;;5090797;28;20419;-70
2023/04/03 06:29:52;;;;;;;3.20;2.10;;;3.80;99.90;;;;;;5090602;28;20434;-70
2023/04/03 06:32:18;;;;;;;3.30;2.80;;;3.80;99.90;;;;;;5090712;28;20566;-69
2023/04/03 06:34:43;;;;;;;3.00;2.10;;;3.80;99.90;;;;;;5090721;28;20604;-70
2023/04/03 06:37:20;;;;;;;3.47;2.83;;;3.80;99.90;;;;;;5090408;28;20271;-70
2023/04/03 06:39:46;;;;;;;3.42;3.15;;;3.80;99.90;;;;;;5090583;28;20301;-70
2023/04/03 06:42:12;;;;;;;3.92;2.83;;;3.90;99.90;;;;;;5088742;28;20861;-69
2023/04/03 06:44:38;;;;;;;2.55;2.35;;;4.00;99.90;;;;;;5090489;28;20228;-69
2023/04/03 06:47:04;;;;;;;3.40;2.80;;;4.00;99.90;;;;;;5090345;28;20219;-70
2023/04/03 06:49:31;;;;;;;2.20;2.10;;;4.10;99.90;;;;;;5090199;28;20182;-70
2023/04/03 06:51:57;;;;;;;4.47;2.77;;;4.10;99.90;;;;;;5088647;28;20454;-70
2023/04/03 06:54:23;;;;;;;2.60;2.40;;;4.10;99.90;;;;;;5089986;28;20498;-69
2023/04/03 06:56:48;;;;;;;3.67;2.40;;;4.20;99.90;;;;;;5090118;28;20416;-69
2023/04/03 06:59:14;;;;;;;2.87;2.63;;;4.20;99.90;;;;;;5071503;28;20290;-69
2023/04/03 07:01:41;;;;;;;4.60;2.47;;;4.30;99.90;;;;;;5090517;28;20194;-70
2023/04/03 07:04:08;;;;;;;3.28;2.40;;;4.30;99.90;;;;;;5090025;28;20178;-69
2023/04/03 07:06:34;;;;;;;3.33;2.67;;;4.40;99.90;;;;;;5090279;28;20186;-69
2023/04/03 07:09:01;;;;;;;3.70;2.45;;;4.30;99.90;;;;;;5071909;28;20423;-70
2023/04/03 07:11:27;;;;;;;4.05;2.60;;;4.50;99.90;;;;;;5090048;28;20213;-69
2023/04/03 07:13:53;;;;;;;2.70;2.27;;;4.60;99.90;;;;;;5090064;28;20756;-68
2023/04/03 07:16:19;;;;;;;3.00;2.58;;;4.70;99.90;;;;;;5071351;28;20508;-70
2023/04/03 07:18:45;;;;;;;3.80;2.57;;;4.70;99.90;;;;;;5089750;28;20228;-69
2023/04/03 07:21:11;;;;;;;5.37;2.57;;;4.90;99.90;;;;;;5088268;28;20201;-70
2023/04/03 07:23:37;;;;;;;2.40;2.20;;;4.80;99.90;;;;;;5089724;28;20435;-69
2023/04/03 07:26:03;;;;;;;2.67;2.47;;;4.90;99.90;;;;;;5089678;28;21163;-70
2023/04/03 07:28:29;;;;;;;2.90;2.13;;;5.10;99.90;;;;;;5087983;28;20423;-69
2023/04/03 07:31:08;;;;;;;4.05;2.40;;;5.20;99.90;;;;;;5089499;28;20193;-69
2023/04/03 07:33:34;;;;;;;3.10;2.47;;;5.20;99.90;;;;;;5088200;28;20291;-68
2023/04/03 07:36:01;;;;;;;3.22;2.00;;;5.20;99.90;;;;;;5089582;28;20938;-68
2023/04/03 07:38:27;;;;;;;4.70;2.27;;;5.30;99.90;;;;;;5087691;28;20641;-69
2023/04/03 07:40:53;;;;;;;3.20;2.70;;;5.50;99.90;;;;;;5089372;28;20615;-69
2023/04/03 07:43:21;;;;;;;2.80;2.20;;;5.40;99.90;;;;;;5089483;28;20938;-69
2023/04/03 07:45:49;;;;;;;8.83;2.73;;;5.50;99.90;;;;;;5089340;28;20187;-69
2023/04/03 07:48:15;;;;;;;2.33;2.13;;;5.70;99.90;;;;;;5089311;28;20444;-69
2023/04/03 07:50:41;;;;;;;3.70;2.60;;;5.70;99.90;;;;;;5089240;28;20190;-68
2023/04/03 07:53:07;;;;;;;2.80;2.23;;;5.80;99.90;;;;;;5089331;28;20496;-69
2023/04/03 07:55:33;;;;;;;2.40;2.23;;;5.90;99.90;;;;;;5087521;28;20500;-69
2023/04/03 07:57:59;;;;;;;4.10;2.20;;;6.00;99.90;;;;;;5087845;28;20413;-69
2023/04/03 08:00:25;;;;;;;2.67;2.47;;;6.00;99.90;;;;;;5089079;28;20463;-70
2023/04/03 08:02:51;;;;;;;4.03;2.47;;;6.00;99.90;;;;;;5087407;28;20214;-69
2023/04/03 08:05:21;;;;;;;4.10;2.40;;;6.00;99.90;;;;;;5087628;28;20178;-69
2023/04/03 08:07:47;;;;;;;2.93;2.43;;;5.90;99.90;;;;;;5088129;28;20643;-69
2023/04/03 08:10:14;;;;;;;4.30;2.20;;;6.00;99.90;;;;;;5088823;28;20419;-69
2023/04/03 08:12:40;;;;;;;3.20;2.50;;;5.80;99.90;;;;;;5088831;28;20959;-69
2023/04/03 08:15:08;;;;;;;2.70;2.27;;;5.80;99.90;;;;;;5088844;28;20416;-69
2023/04/03 08:17:34;;;;;;;4.00;2.90;;;5.90;99.90;;;;;;5088876;28;20531;-69
2023/04/03 08:20:00;;;;;;;9.00;3.93;;;6.10;99.90;;;;;;5087541;28;20467;-69
2023/04/03 08:22:26;;;;;;;4.47;3.50;;;6.10;99.90;;;;;;5088862;28;20424;-70
2023/04/03 08:24:52;;;;;;;7.90;4.50;;;6.10;98.90;;;;;;5089338;28;20421;-70
2023/04/03 08:27:17;;;;;;;19.87;12.80;;;6.00;99.50;;;;;;5087526;28;20427;-70
2023/04/03 08:29:43;;;;;;;6.70;3.00;;;6.10;99.40;;;;;;5089392;28;20319;-71
2023/04/03 08:32:09;;;;;;;3.60;3.13;;;6.20;99.10;;;;;;5088874;28;20689;-69
2023/04/03 08:34:36;;;;;;;4.30;2.80;;;6.10;99.90;;;;;;5088953;28;20194;-68
2023/04/03 08:37:02;;;;;;;2.17;1.77;;;6.10;98.30;;;;;;5087453;28;20661;-69
2023/04/03 08:39:28;;;;;;;4.83;2.37;;;6.10;99.60;;;;;;5088538;28;20470;-69
2023/04/03 08:42:00;;;;;;;3.10;2.13;;;6.10;99.10;;;;;;5088641;28;20293;-69
2023/04/03 08:44:38;;;;;;;5.83;2.40;;;6.20;98.40;;;;;;5088502;28;20177;-68
2023/04/03 08:47:26;;;;;;;3.53;2.50;;;6.10;99.30;;;;;;5088074;28;20791;-69
2023/04/03 08:49:56;;;;;;;5.13;2.33;;;6.20;99.90;;;;;;5088118;28;20444;-69
2023/04/03 08:52:36;;;;;;;2.57;2.37;;;6.30;98.10;;;;;;5087900;28;20424;-69
2023/04/03 08:55:06;;;;;;;2.20;1.87;;;6.30;98.20;;;;;;5086393;28;20450;-69
2023/04/03 08:57:58;;;;;;;3.43;2.30;;;6.30;99.40;;;;;;5088117;28;21211;-69
2023/04/03 09:00:26;;;;;;;4.23;2.17;;;6.30;99.60;;;;;;5087801;28;20488;-68
2023/04/03 09:02:56;;;;;;;3.97;2.87;;;6.10;99.90;;;;;;5086553;28;20440;-69
2023/04/03 09:05:49;;;;;;;6.23;2.83;;;6.00;99.90;;;;;;5087716;28;20420;-69
2023/04/03 09:08:31;;;;;;;2.70;2.30;;;6.10;99.90;;;;;;5087660;28;20432;-69
2023/04/03 09:11:34;;;;;;;3.00;2.80;;;6.10;99.90;;;;;;5087938;28;20810;-69
2023/04/03 09:14:34;;;;;;;2.43;2.23;;;6.20;99.90;;;;;;5085217;28;20420;-69
2023/04/03 09:17:10;;;;;;;4.43;2.80;;;6.20;99.90;;;;;;5087778;28;20417;-69
2023/04/03 09:19:43;;;;;;;4.90;2.30;;;6.10;98.90;;;;;;5070351;28;20486;-69
2023/04/03 09:22:19;;;;;;;2.33;2.13;;;6.20;98.80;;;;;;5087902;28;20428;-69
2023/04/03 09:24:49;;;;;;;2.63;2.43;;;6.20;97.30;;;;;;5087866;28;20443;-69
2023/04/03 09:27:15;;;;;;;5.17;2.87;;;6.30;97.70;;;;;;5087739;28;20401;-69
2023/04/03 09:29:45;;;;;;;3.20;2.50;;;6.40;98.80;;;;;;5087911;28;20534;-69
2023/04/03 09:32:28;;;;;;;2.70;2.50;;;6.50;98.80;;;;;;5086543;28;20216;-69
2023/04/03 09:34:58;;;;;;;5.03;2.70;;;6.60;97.60;;;;;;5088143;28;20431;-69
2023/04/03 09:37:37;;;;;;;5.37;2.97;;;6.60;97.80;;;;;;5086556;28;20440;-69
2023/04/03 09:40:04;;;;;;;3.23;2.33;;;6.80;98.70;;;;;;5087931;28;20516;-69
2023/04/03 09:42:31;;;;;;;6.97;2.73;;;6.80;98.10;;;;;;5087510;28;20428;-69
2023/04/03 09:45:05;;;;;;;4.10;2.70;;;6.90;97.70;;;;;;5087466;28;20466;-69
2023/04/03 09:47:33;;;;;;;3.20;2.90;;;6.90;96.50;;;;;;5086479;28;20421;-69
2023/04/03 09:50:14;;;;;;;4.33;2.63;;;6.90;96.40;;;;;;5087515;28;20463;-69
2023/04/03 09:52:44;;;;;;;6.03;2.53;;;6.80;96.50;;;;;;5087447;28;20826;-69
2023/04/03 09:55:20;;;;;;;3.57;2.70;;;6.90;97.20;;;;;;5087801;28;20420;-70
2023/04/03 09:57:48;;;;;;;2.20;2.00;;;7.00;95.90;;;;;;5087703;28;20513;-69
2023/04/03 10:00:21;;;;;;;4.33;2.50;;;7.00;95.30;;;;;;5085975;28;20467;-69
2023/04/03 10:02:55;;;;;;;5.20;2.50;;;7.00;94.80;;;;;;5087380;28;20440;-69
2023/04/03 10:05:32;;;;;;;4.10;2.67;;;6.90;95.00;;;;;;5086601;28;21378;-68
2023/04/03 10:08:23;;;;;;;3.13;2.50;;;7.10;94.10;;;;;;5086494;28;20416;-69
2023/04/03 10:11:09;;;;;;;2.50;2.40;;;6.80;93.00;;;;;;5088225;28;20507;-68
2023/04/03 10:13:35;;;;;;;4.13;2.90;;;6.80;94.20;;;;;;5086145;28;20489;-68
2023/04/03 10:16:12;;;;;;;2.93;2.33;;;6.70;94.30;;;;;;5087778;28;20448;-69
2023/04/03 10:18:46;;;;;;;3.60;2.47;;;6.60;95.10;;;;;;5087830;28;20222;-68
2023/04/03 10:21:37;;;;;;;3.07;2.87;;;6.60;94.70;;;;;;5087434;28;20452;-69
2023/04/03 10:24:12;;;;;;;3.67;2.43;;;6.50;93.50;;;;;;5048386;28;20412;-69
2023/04/03 10:26:52;;;;;;;2.90;2.13;;;6.50;93.40;;;;;;5085674;28;20416;-69
2023/04/03 10:29:39;;;;;;;3.00;2.00;;;6.40;92.50;;;;;;5086979;28;21318;-69
2023/04/03 10:32:40;;;;;;;1.80;1.47;;;6.70;93.10;;;;;;5090730;28;20970;-70
2023/04/03 10:35:18;;;;;;;2.73;1.80;;;6.70;91.80;;;;;;5089266;28;21001;-70
2023/04/03 10:38:20;;;;;;;2.30;2.10;;;6.90;92.30;;;;;;5090483;28;20476;-70
2023/04/03 10:41:07;;;;;;;2.00;1.90;;;6.90;91.00;;;;;;5090702;28;21299;-69
2023/04/03 10:44:12;;;;;;;2.87;2.23;;;7.20;91.60;;;;;;5090919;28;20546;-72
2023/04/03 10:46:51;;;;;;;7.93;2.60;;;7.40;91.80;;;;;;5090938;28;20416;-70
2023/04/03 10:49:27;;;;;;;3.30;2.10;;;7.30;91.80;;;;;;5091144;28;20507;-69
2023/04/03 10:52:11;;;;;;;7.00;3.30;;;7.30;90.60;;;;;;5091150;28;21014;-69
2023/04/03 10:54:40;;;;;;;6.50;3.40;;;7.30;91.00;;;;;;5091126;28;20416;-69
2023/04/03 10:57:09;;;;;;;3.00;2.70;;;7.10;91.90;;;;;;5092136;28;20420;-70
2023/04/03 10:59:50;;;;;;;6.63;3.03;;;7.10;92.30;;;;;;5091193;28;20460;-69
2023/04/03 11:02:32;;;;;;;5.73;2.90;;;6.80;92.20;;;;;;5091094;28;21255;-69
2023/04/03 11:05:21;;;;;;;6.93;4.83;;;6.60;93.40;;;;;;5090722;28;20423;-70
2023/04/03 11:07:51;;;;;;;4.27;2.90;;;6.50;92.90;;;;;;5090091;28;20423;-69
2023/04/03 11:10:23;;;;;;;5.13;2.23;;;6.60;93.10;;;;;;5090209;28;20428;-69
2023/04/03 11:12:56;;;;;;;7.40;4.50;;;6.80;92.40;;;;;;5089972;28;20527;-70
2023/04/03 11:15:24;;;;;;;2.53;2.00;;;6.80;92.60;;;;;;5090376;28;20477;-69
2023/04/03 11:17:54;;;;;;;3.20;2.00;;;6.80;90.70;;;;;;5090077;28;21047;-70
2023/04/03 11:20:27;;;;;;;3.27;2.43;;;6.70;90.90;;;;;;5088201;28;20484;-68
2023/04/03 11:22:59;;;;;;;3.17;1.80;;;6.70;91.40;;;;;;5088552;28;20451;-69
2023/04/03 11:25:29;;;;;;;9.73;2.20;;;6.60;91.40;;;;;;5089902;28;20416;-69
2023/04/03 11:28:04;;;;;;;12.47;2.50;;;6.60;91.70;;;;;;5088312;28;20417;-69
2023/04/03 11:31:00;;;;;;;5.27;2.43;;;6.50;90.90;;;;;;5089679;28;20502;-69
2023/04/03 11:33:28;;;;;;;2.83;2.50;;;6.50;92.30;;;;;;5089853;28;20807;-69
2023/04/03 11:36:17;;;;;;;2.60;2.20;;;6.60;92.40;;;;;;5089516;28;21149;-68
2023/04/03 11:38:46;;;;;;;1.90;1.67;;;6.60;90.80;;;;;;5089667;28;21012;-70
2023/04/03 11:41:13;;;;;;;3.10;2.40;;;6.40;91.00;;;;;;5089150;28;20475;-69
2023/04/03 11:44:00;;;;;;;3.80;2.10;;;6.50;91.20;;;;;;5087939;28;20425;-69
2023/04/03 11:46:56;;;;;;;2.87;1.63;;;6.50;90.20;;;;;;5089403;28;20420;-69
2023/04/03 11:50:00;;;;;;;5.63;2.23;;;6.50;90.60;;;;;;5087937;28;20519;-69
2023/04/03 11:52:42;;;;;;;3.87;2.60;;;6.60;90.20;;;;;;5006235;28;20463;-69
2023/04/03 11:55:20;;;;;;;5.20;2.80;;;6.70;90.50;;;;;;5082685;28;20424;-69
2023/04/03 11:57:58;;;;;;;7.27;3.10;;;6.80;91.20;;;;;;5089199;28;20423;-69
2023/04/03 12:00:52;;;;;;;2.33;2.00;;;7.00;90.60;;;;;;5087304;28;20468;-69
2023/04/03 12:03:27;;;;;;;2.27;2.00;;;6.90;89.00;;;;;;5088952;28;20404;-69
2023/04/03 12:06:05;;;;;;;6.20;3.20;;;7.00;86.40;;;;;;5089134;28;20900;-69
2023/04/03 12:08:41;;;;;;;5.23;3.17;;;6.90;86.20;;;;;;5088836;28;20496;-68
2023/04/03 12:11:12;;;;;;;2.80;1.97;;;6.90;86.70;;;;;;5089047;28;20412;-68
2023/04/03 12:13:56;;;;;;;3.27;1.80;;;6.80;86.60;;;;;;5088926;28;20431;-68
2023/04/03 12:16:26;;;;;;;3.97;1.83;;;6.70;86.80;;;;;;5088880;28;20419;-68
2023/04/03 12:18:55;;;;;;;1.33;1.23;;;6.80;86.20;;;;;;5088684;28;20417;-68
2023/04/03 12:21:22;;;;;;;1.63;1.53;;;6.90;86.10;;;;;;5088763;28;20893;-68
2023/04/03 12:24:25;;;;;;;6.33;2.43;;;6.90;87.40;;;;;;5088651;28;20980;-68
2023/04/03 12:26:56;;;;;;;4.00;1.93;;;6.80;86.80;;;;;;5006253;28;20874;-68
2023/04/03 12:29:28;;;;;;;3.70;2.00;;;6.80;85.70;;;;;;5075982;28;20429;-68
2023/04/03 12:31:54;;;;;;;5.53;2.27;;;6.90;85.10;;;;;;5088580;28;20471;-69
2023/04/03 12:34:28;;;;;;;5.00;1.70;;;6.80;83.80;;;;;;5088202;28;20842;-69
2023/04/03 12:36:57;;;;;;;1.70;1.10;;;6.90;83.70;;;;;;5088420;28;20215;-68
2023/04/03 12:39:51;;;;;;;6.13;1.73;;;7.00;84.40;;;;;;5088456;28;21297;-68
2023/04/03 12:42:58;;;;;;;3.40;2.23;;;6.90;84.80;;;;;;5088323;28;20425;-68
2023/04/03 12:45:25;;;;;;;8.43;1.90;;;6.90;84.00;;;;;;5005661;28;20431;-69
2023/04/03 12:47:55;;;;;;;4.07;2.13;;;6.80;85.20;;;;;;5075186;28;20905;-68
2023/04/03 12:50:41;;;;;;;4.17;1.93;;;6.70;83.80;;;;;;5087925;28;20995;-68
2023/04/03 12:53:11;;;;;;;1.43;1.33;;;6.80;84.70;;;;;;5086087;28;20858;-69
2023/04/03 12:55:37;;;;;;;1.70;1.37;;;6.80;82.70;;;;;;5088230;28;21211;-69
2023/04/03 12:58:26;;;;;;;3.57;3.07;;;6.90;83.10;;;;;;5088278;28;20439;-69
2023/04/03 13:01:08;;;;;;;4.50;2.23;;;6.90;82.40;;;;;;5087844;28;20241;-68
2023/04/03 13:03:36;;;;;;;27.93;9.17;;;6.90;82.10;;;;;;5088298;28;20419;-68
2023/04/03 13:06:03;;;;;;;3.40;2.27;;;7.10;82.20;;;;;;5088021;28;20473;-69
2023/04/03 13:08:30;;;;;;;10.30;1.73;;;7.10;82.20;;;;;;5086997;28;20435;-68
2023/04/03 13:11:08;;;;;;;3.43;1.50;;;6.90;80.80;;;;;;5086359;28;21011;-68
2023/04/03 13:13:33;;;;;;;3.47;2.17;;;7.00;83.40;;;;;;5086414;28;20513;-69